Stella, MO

2:34 AM CDT on July 23, 2014 (GMT -0500)
Bentonville Municipal-Thaden (KVBT) Elev 1296 ft | 36.34 °N, 94.22 °W | Change Station

Current weather conditions updated 19 minutes ago

Clear
Clear
75 °F
Feels Like 75 °F
N
4
Wind Variable Wind from SW

Today is forecast to be nearly the same temperature as yesterday.

Today
High -- | Low -- °F
--% Chance of Precip.
Yesterday
High -- | Low -- °F
Precip. -- in
6:15 AM 8:30 PM
Waning Crescent, 12% visible
Pressure 30.12 in
Visibility 5.0 miles
Clouds Clear
Dew Point 72 °F
Humidity 89%
Rainfall 0.00 in
Snow Depth Not available.
UV 0 out of 12
Pollen 4.90 out of 12
Air Quality Not available.
Flu Activity Not available.
METAR KVBT 230715Z AUTO 22003KT 5SM CLR 24/22 A3012 RMK AO1

More Conditions Fewer Conditions

Pressure 30.12 in
Visibility 5.0 miles
Clouds Clear
Dew Point 72 °F
Humidity 89%
Rainfall 0.00 in
Snow Depth Not available.
UV 0 out of 12
Pollen 4.90 out of 12
Air Quality Not available.
Flu Activity Not available.
METAR KVBT 230715Z AUTO 22003KT 5SM CLR 24/22 A3012 RMK AO1

More Conditions Fewer Conditions

10-Day Weather Forecast

Almanac

Astronomy

Jul. 23, 2014 Rise Set
Actual Time 6:15 AM CDT 8:30 PM CDT
Civil Twilight 5:46 AM CDT 8:59 PM CDT
Nautical Twilight 5:10 AM CDT 9:35 PM CDT
Astronomical Twilight 4:31 AM CDT 10:14 PM CDT
Moon 3:34 AM CDT 6:00 PM CDT
Length of Visible Light 15h 13m
Length of Day
14h 15m
Tomorrow will be 1m 30s shorter.
Waning Crescent, 12% of the Moon is Illuminated
Today
Waning Crescent
Jul 26
New
Aug 3
First Quarter
Aug 10
Full
Aug 17
Last Quarter

Today's Extremes

State Highs State Lows

Community

WunderPhotos

Upload Photos

1,736,527 photos uploaded!

Nearby

Snow Depth

Station Depth Elevation
No new snow has been reported.

Earthquake Activity

City Distance Mag. Time & Date
No recent earthquake activity has been reported nearby.
Minimum magnitude displayed is 2.5.

Coastal Water Temperatures

Place Temperature
No Stations Reporting

Nearby Weather Stations

Station Location Temp. Heat Index Dew Point Humidity Wind Precip. Elev Updated Type
Farm Road 2100, Wheaton, MO 75.4 °F 74 °F 74 °F 95% SSW  at  1.0 mph 0.00 in / hr 1335 ft 2:34 AM CDT Rapid Fire
NonFedAWOS NEOSHO AIRPORT , Neosho, MO 79 °F 84 °F 79 °F 100% North  at  0 mph 0.00 in / hr 1254 ft 1:15 AM CDT MADIS
Loch Lomond, Bella Vista, AR 74.8 °F 73 °F 73 °F 93% SSW  at  0.0 mph 0.00 in / hr 1243 ft 2:30 AM CDT Normal
Monett, MO 76.6 °F 77 °F 75 °F 94% North  at  0.0 mph 0.00 in / hr 1306 ft 2:34 AM CDT Normal
W5VAN, Rogers, AR 72.7 °F - 70 °F 91% SSW  at  0.0 mph 0.00 in / hr 1227 ft 3:34 AM EDT Rapid Fire
Avoca, Rogers, AR 74.1 °F 71 °F 73 °F 95% NNE  at  0.0 mph - / hr 1348 ft 2:30 AM CDT Normal

Show More Stations Show Fewer Stations